Time;durP1;ratioP1;P1;durP2;ratioP2;P2;SDS_P1;SDS_P2;PMS_P1;PMS_P2;Temp;Humidity;BMP_temperature;BMP_pressure;BME280_temperature;BME280_humidity;BME280_pressure;Samples;Min_cycle;Max_cycle;Signal;HPM_P1;HPM_P2
2021/06/10 00:00:29;;;;;;;1.80;1.43;;;26.30;50.80;;;;;;4958463;28;20211;-69
2021/06/10 00:03:00;;;;;;;2.50;1.60;;;26.30;50.80;;;;;;4987003;28;20196;-70
2021/06/10 00:05:32;;;;;;;1.73;1.50;;;26.30;50.80;;;;;;4990096;28;20282;-70
2021/06/10 00:08:04;;;;;;;1.77;1.50;;;26.30;50.70;;;;;;4987290;28;20208;-69
2021/06/10 00:10:37;;;;;;;1.87;1.60;;;26.30;50.70;;;;;;4990533;28;20353;-70
2021/06/10 00:13:17;;;;;;;2.90;1.60;;;26.20;50.70;;;;;;4992101;28;20191;-70
2021/06/10 00:16:02;;;;;;;5.20;1.63;;;26.30;50.70;;;;;;4990746;28;20640;-70
2021/06/10 00:18:34;;;;;;;1.97;1.77;;;26.30;50.80;;;;;;4979354;28;20201;-69
2021/06/10 00:21:03;;;;;;;1.77;1.60;;;26.20;50.70;;;;;;4959584;28;20206;-70
2021/06/10 00:23:35;;;;;;;1.53;1.43;;;26.20;50.70;;;;;;4972137;28;20634;-69
2021/06/10 00:26:04;;;;;;;1.70;1.60;;;26.20;50.70;;;;;;4987288;28;20220;-69
2021/06/10 00:28:36;;;;;;;1.93;1.70;;;26.20;50.60;;;;;;4989613;28;20208;-69
2021/06/10 00:31:05;;;;;;;1.50;1.30;;;26.20;50.60;;;;;;4989442;28;20200;-70
2021/06/10 00:33:39;;;;;;;2.53;1.63;;;26.20;50.60;;;;;;4941618;28;20246;-69
2021/06/10 00:36:11;;;;;;;1.63;1.40;;;26.20;50.60;;;;;;4987133;28;20212;-70
2021/06/10 00:38:48;;;;;;;1.60;1.30;;;26.10;50.60;;;;;;4981888;28;20200;-70
2021/06/10 00:41:19;;;;;;;3.43;1.40;;;26.20;50.60;;;;;;4988723;28;20196;-70
2021/06/10 00:44:05;;;;;;;1.83;1.33;;;26.10;50.60;;;;;;4985895;28;20287;-70
2021/06/10 00:46:34;;;;;;;1.70;1.60;;;26.20;50.60;;;;;;5000516;28;20207;-70
2021/06/10 00:49:05;;;;;;;2.97;1.57;;;26.10;50.60;;;;;;4973982;28;20211;-70
2021/06/10 00:51:39;;;;;;;1.50;1.40;;;26.10;50.50;;;;;;4972227;28;20207;-70
2021/06/10 00:54:09;;;;;;;3.00;1.40;;;26.10;50.50;;;;;;4987840;28;20197;-70
2021/06/10 00:56:43;;;;;;;1.97;1.30;;;26.10;50.50;;;;;;4980645;28;20212;-70
2021/06/10 00:59:14;;;;;;;2.33;1.30;;;26.10;50.50;;;;;;4987683;28;20200;-70
2021/06/10 01:01:41;;;;;;;1.50;1.30;;;26.10;50.60;;;;;;4971716;28;20215;-70
2021/06/10 01:04:12;;;;;;;1.63;1.40;;;26.10;50.50;;;;;;4988369;28;20223;-70
2021/06/10 01:07:03;;;;;;;2.30;1.60;;;26.10;50.60;;;;;;4973957;28;20235;-70
2021/06/10 01:10:06;;;;;;;2.40;1.50;;;26.00;50.40;;;;;;4988464;28;20216;-70
2021/06/10 01:13:21;;;;;;;1.40;1.30;;;26.10;50.50;;;;;;4978484;28;20212;-70
2021/06/10 01:15:59;;;;;;;1.30;1.20;;;26.00;50.50;;;;;;4980752;28;20715;-70
2021/06/10 01:18:32;;;;;;;1.50;1.40;;;26.00;50.50;;;;;;4999849;28;20214;-70
2021/06/10 01:21:07;;;;;;;1.93;1.40;;;26.00;50.50;;;;;;4977175;28;20212;-70
2021/06/10 01:24:11;;;;;;;1.60;1.30;;;26.00;50.50;;;;;;4992230;28;20212;-70
2021/06/10 01:26:59;;;;;;;1.70;1.60;;;26.00;50.50;;;;;;4993226;28;20200;-70
2021/06/10 01:29:32;;;;;;;2.53;1.50;;;26.00;50.60;;;;;;4995913;28;20878;-70
2021/06/10 01:32:06;;;;;;;1.50;1.40;;;26.00;50.50;;;;;;4992705;28;20266;-70
2021/06/10 01:34:39;;;;;;;1.47;1.37;;;26.00;50.50;;;;;;4964973;28;20622;-70
2021/06/10 01:37:10;;;;;;;2.03;1.30;;;26.00;50.50;;;;;;4990812;28;20720;-69
2021/06/10 01:39:42;;;;;;;1.50;1.40;;;26.00;50.50;;;;;;4977042;28;20200;-70
2021/06/10 01:42:14;;;;;;;1.20;1.10;;;25.90;50.40;;;;;;4991572;28;20211;-69
2021/06/10 01:44:47;;;;;;;1.47;1.37;;;25.90;50.40;;;;;;4992504;28;20203;-69
2021/06/10 01:47:22;;;;;;;1.40;1.30;;;25.90;50.40;;;;;;4989956;28;20204;-69
2021/06/10 01:49:55;;;;;;;1.77;1.20;;;25.90;50.50;;;;;;4985988;28;20688;-69
2021/06/10 01:52:27;;;;;;;1.30;1.20;;;25.90;50.50;;;;;;4962562;28;20545;-69
2021/06/10 01:55:03;;;;;;;2.60;1.27;;;25.90;50.50;;;;;;4981437;28;20208;-70
2021/06/10 01:57:53;;;;;;;1.50;1.20;;;25.90;50.50;;;;;;4990745;28;20204;-69
2021/06/10 02:00:23;;;;;;;1.10;1.07;;;25.90;50.40;;;;;;4975836;28;20274;-69
2021/06/10 02:02:55;;;;;;;1.10;1.00;;;25.90;50.50;;;;;;4993624;28;20203;-69
2021/06/10 02:05:27;;;;;;;1.40;1.27;;;25.90;50.40;;;;;;4988392;28;20250;-70
2021/06/10 02:07:56;;;;;;;1.50;1.40;;;25.90;50.50;;;;;;4982500;28;20212;-70
2021/06/10 02:10:32;;;;;;;1.40;1.30;;;25.90;50.50;;;;;;4976418;28;20215;-70
2021/06/10 02:13:02;;;;;;;1.40;1.30;;;25.90;50.50;;;;;;4992531;28;20748;-69
2021/06/10 02:15:36;;;;;;;1.17;1.07;;;25.80;50.40;;;;;;4958884;28;20232;-70
2021/06/10 02:18:11;;;;;;;1.13;1.03;;;25.90;50.50;;;;;;4973656;28;20213;-69
2021/06/10 02:20:41;;;;;;;1.07;0.97;;;25.80;50.40;;;;;;4985242;28;20526;-70
2021/06/10 02:23:12;;;;;;;2.23;1.03;;;25.80;50.40;;;;;;4980472;28;20197;-69
2021/06/10 02:25:42;;;;;;;1.20;1.10;;;25.80;50.40;;;;;;4981976;28;20273;-70
2021/06/10 02:28:11;;;;;;;1.80;1.30;;;25.80;50.40;;;;;;4989354;28;20288;-70
2021/06/10 02:30:41;;;;;;;2.10;1.20;;;25.80;50.50;;;;;;4989865;28;20223;-70
2021/06/10 02:33:17;;;;;;;1.33;1.23;;;25.80;50.50;;;;;;4990870;28;20204;-70
2021/06/10 02:35:47;;;;;;;1.30;1.20;;;25.80;50.50;;;;;;4976374;28;20192;-70
2021/06/10 02:38:25;;;;;;;1.40;1.20;;;25.80;50.50;;;;;;4989496;28;20213;-70
2021/06/10 02:41:01;;;;;;;1.27;1.17;;;25.70;50.50;;;;;;4975656;28;20224;-70
2021/06/10 02:43:34;;;;;;;1.23;1.13;;;25.80;50.50;;;;;;4989300;28;20220;-70
2021/06/10 02:46:06;;;;;;;1.47;1.20;;;25.70;50.50;;;;;;4976632;28;20230;-70
2021/06/10 02:48:36;;;;;;;3.73;1.37;;;25.70;50.50;;;;;;4989914;28;20223;-70
2021/06/10 02:51:05;;;;;;;1.80;1.27;;;25.70;50.50;;;;;;4973171;28;20223;-70
2021/06/10 02:53:40;;;;;;;1.27;1.17;;;25.70;50.50;;;;;;4990396;28;20201;-70
2021/06/10 02:56:10;;;;;;;1.83;1.50;;;25.70;50.50;;;;;;4973786;28;20340;-70
2021/06/10 02:58:42;;;;;;;1.30;1.13;;;25.70;50.50;;;;;;4995143;28;20249;-70
2021/06/10 03:01:12;;;;;;;1.70;1.30;;;25.70;50.50;;;;;;4975546;28;20204;-70
2021/06/10 03:03:46;;;;;;;1.50;1.27;;;25.70;50.50;;;;;;4974719;28;20675;-70
2021/06/10 03:06:17;;;;;;;1.63;1.40;;;25.70;50.50;;;;;;4987129;28;20649;-70
2021/06/10 03:08:50;;;;;;;1.70;1.23;;;25.70;50.50;;;;;;4991270;28;20217;-70
2021/06/10 03:11:21;;;;;;;2.30;1.10;;;25.70;50.50;;;;;;4986359;28;20209;-70
2021/06/10 03:13:53;;;;;;;1.63;1.37;;;25.70;50.50;;;;;;4976237;28;20228;-70
2021/06/10 03:16:23;;;;;;;1.40;1.30;;;25.70;50.40;;;;;;4959502;28;20399;-69
2021/06/10 03:18:54;;;;;;;1.13;1.03;;;25.70;50.50;;;;;;4991546;28;20208;-70
2021/06/10 03:21:48;;;;;;;1.27;1.17;;;25.70;50.50;;;;;;4974242;28;20199;-69
2021/06/10 03:24:22;;;;;;;3.27;1.30;;;25.70;50.50;;;;;;4985597;28;20209;-70
2021/06/10 03:26:54;;;;;;;2.70;1.20;;;25.60;50.40;;;;;;4990121;28;20188;-70
2021/06/10 03:29:24;;;;;;;1.30;1.20;;;25.60;51.10;;;;;;4971817;28;20200;-69
2021/06/10 03:31:59;;;;;;;2.83;1.40;;;25.60;50.40;;;;;;4990676;28;20661;-70
2021/06/10 03:34:29;;;;;;;1.90;1.10;;;25.60;50.40;;;;;;4988642;28;20216;-70
2021/06/10 03:37:09;;;;;;;1.37;1.27;;;25.60;50.60;;;;;;4966769;28;20282;-71
2021/06/10 03:39:51;;;;;;;1.47;1.37;;;25.50;50.60;;;;;;4987431;28;20315;-71
2021/06/10 03:42:21;;;;;;;1.03;0.93;;;25.50;50.60;;;;;;4962588;28;20212;-71
2021/06/10 03:45:03;;;;;;;1.40;1.30;;;25.50;50.70;;;;;;4985858;28;20200;-71
2021/06/10 03:47:33;;;;;;;1.37;1.27;;;25.50;50.80;;;;;;4976883;28;20222;-72
2021/06/10 03:50:01;;;;;;;1.03;1.03;;;25.50;50.80;;;;;;4988839;28;20688;-71
2021/06/10 03:52:32;;;;;;;1.83;1.23;;;25.50;50.90;;;;;;4976004;28;20618;-71
2021/06/10 03:55:04;;;;;;;1.50;1.40;;;25.50;50.90;;;;;;4977006;28;20239;-71
2021/06/10 03:57:37;;;;;;;2.10;1.20;;;25.50;50.90;;;;;;4987770;28;20211;-69
2021/06/10 04:00:10;;;;;;;1.53;1.10;;;25.40;50.90;;;;;;4990586;28;20200;-69
2021/06/10 04:02:39;;;;;;;2.30;1.23;;;25.50;50.90;;;;;;4989236;28;20400;-69
2021/06/10 04:05:11;;;;;;;2.77;1.27;;;25.40;50.90;;;;;;4990122;28;20201;-69
2021/06/10 04:07:40;;;;;;;1.80;1.40;;;25.50;50.90;;;;;;4969903;28;20208;-69
2021/06/10 04:10:25;;;;;;;1.47;1.23;;;25.40;50.90;;;;;;4990851;28;20299;-69
2021/06/10 04:12:57;;;;;;;1.43;1.33;;;25.40;50.80;;;;;;4987751;28;20208;-69
2021/06/10 04:15:27;;;;;;;12.93;1.13;;;25.40;50.80;;;;;;4989500;28;20931;-69
2021/06/10 04:17:57;;;;;;;1.23;0.93;;;25.40;50.80;;;;;;4989206;28;20616;-69
2021/06/10 04:20:26;;;;;;;2.80;1.20;;;25.40;50.70;;;;;;4994675;28;20196;-71
2021/06/10 04:22:55;;;;;;;1.37;1.20;;;25.40;50.70;;;;;;4991520;28;20204;-71
2021/06/10 04:25:24;;;;;;;1.50;1.40;;;25.40;50.70;;;;;;4990772;28;20216;-71
2021/06/10 04:27:54;;;;;;;2.10;1.30;;;25.40;50.70;;;;;;4990157;28;20653;-71
2021/06/10 04:30:24;;;;;;;1.70;0.93;;;25.40;50.70;;;;;;4990208;28;20224;-71
2021/06/10 04:32:56;;;;;;;1.53;1.10;;;25.40;50.80;;;;;;4990568;28;20200;-71
2021/06/10 04:35:26;;;;;;;1.97;1.10;;;25.40;50.60;;;;;;4987807;28;20212;-69
2021/06/10 04:37:54;;;;;;;1.30;1.20;;;25.40;50.60;;;;;;4972645;28;20220;-69
2021/06/10 04:40:26;;;;;;;1.60;1.50;;;25.40;50.60;;;;;;4989306;28;20196;-71
2021/06/10 04:42:55;;;;;;;1.03;1.03;;;25.40;50.60;;;;;;4977416;28;20219;-71
2021/06/10 04:45:24;;;;;;;1.50;1.40;;;25.40;51.20;;;;;;4971782;28;20254;-69
2021/06/10 04:47:54;;;;;;;1.50;1.40;;;25.40;50.60;;;;;;4989403;28;20232;-69
2021/06/10 04:50:26;;;;;;;1.37;1.20;;;25.40;50.60;;;;;;4977460;28;20191;-69
2021/06/10 04:52:58;;;;;;;2.73;1.17;;;25.40;50.50;;;;;;4993290;28;20590;-68
2021/06/10 04:55:29;;;;;;;1.83;1.30;;;25.40;50.50;;;;;;4991850;28;20215;-71
2021/06/10 04:58:00;;;;;;;2.00;1.63;;;25.40;50.50;;;;;;4993983;28;20236;-71
2021/06/10 05:00:29;;;;;;;1.47;1.37;;;25.40;50.50;;;;;;4992943;28;20676;-69
2021/06/10 05:03:02;;;;;;;1.60;1.20;;;25.40;50.50;;;;;;4988342;28;20549;-68
2021/06/10 05:05:31;;;;;;;2.10;1.80;;;25.40;50.50;;;;;;4990238;28;20653;-68
2021/06/10 05:08:02;;;;;;;1.57;1.47;;;25.40;50.50;;;;;;4993587;28;20223;-68
2021/06/10 05:10:31;;;;;;;2.50;1.47;;;25.40;50.40;;;;;;4992869;28;20204;-71
2021/06/10 05:13:01;;;;;;;2.23;1.90;;;25.40;50.40;;;;;;4991721;28;20259;-70
2021/06/10 05:15:31;;;;;;;2.43;1.90;;;25.40;50.30;;;;;;4993665;28;20720;-70
2021/06/10 05:18:01;;;;;;;3.10;2.40;;;25.40;50.20;;;;;;4992492;28;20713;-71
2021/06/10 05:20:29;;;;;;;9.37;4.23;;;25.40;50.20;;;;;;4982956;28;20578;-68
2021/06/10 05:22:58;;;;;;;13.10;5.60;;;25.40;50.40;;;;;;4955911;28;20201;-68
2021/06/10 05:25:31;;;;;;;14.30;6.03;;;25.40;50.40;;;;;;4986322;28;20227;-69
2021/06/10 05:28:03;;;;;;;16.03;6.27;;;25.40;50.40;;;;;;4996690;28;20193;-69
2021/06/10 05:30:34;;;;;;;13.53;6.00;;;25.40;50.40;;;;;;4995457;28;20215;-72
2021/06/10 05:33:03;;;;;;;15.63;7.03;;;25.40;50.40;;;;;;4972076;28;20196;-71
2021/06/10 05:35:32;;;;;;;13.23;6.37;;;25.40;50.40;;;;;;4993267;28;20205;-71
2021/06/10 05:38:04;;;;;;;11.93;6.17;;;25.40;50.40;;;;;;4990147;28;20228;-71
2021/06/10 05:40:32;;;;;;;10.77;6.57;;;25.40;50.50;;;;;;4991812;28;20232;-71
2021/06/10 05:43:03;;;;;;;10.07;5.73;;;25.40;50.50;;;;;;4992106;28;20638;-71
2021/06/10 05:45:35;;;;;;;13.50;6.63;;;25.40;50.50;;;;;;4978226;28;20299;-72
2021/06/10 05:48:04;;;;;;;10.73;5.80;;;25.40;50.40;;;;;;4994165;28;20283;-71
2021/06/10 05:50:34;;;;;;;13.50;6.30;;;25.40;50.40;;;;;;4990323;28;20235;-69
2021/06/10 05:53:02;;;;;;;10.00;5.47;;;25.40;50.30;;;;;;4989397;28;20533;-68
2021/06/10 05:55:31;;;;;;;8.70;5.23;;;25.50;50.40;;;;;;4991335;28;20212;-69
2021/06/10 05:58:03;;;;;;;7.97;5.10;;;25.50;50.40;;;;;;4999099;28;20208;-68
2021/06/10 06:00:34;;;;;;;9.17;5.10;;;25.50;50.30;;;;;;4989863;28;20908;-72
2021/06/10 06:03:06;;;;;;;10.27;4.97;;;25.50;50.30;;;;;;4992145;28;20302;-73
2021/06/10 06:05:37;;;;;;;8.73;5.10;;;25.50;50.30;;;;;;4990574;28;20218;-68
2021/06/10 06:08:09;;;;;;;8.10;4.33;;;25.50;50.40;;;;;;4991190;28;20638;-68
2021/06/10 06:10:39;;;;;;;5.77;4.53;;;25.50;50.40;;;;;;4998768;28;20238;-69
2021/06/10 06:13:10;;;;;;;6.13;3.87;;;25.50;50.70;;;;;;4984123;28;20243;-69
2021/06/10 06:15:41;;;;;;;5.73;3.87;;;25.50;50.50;;;;;;4999000;28;20231;-71
2021/06/10 06:18:09;;;;;;;6.87;4.33;;;25.50;50.60;;;;;;4982279;28;20444;-72
2021/06/10 06:20:39;;;;;;;5.30;3.63;;;25.50;50.50;;;;;;4997589;28;20202;-69
2021/06/10 06:23:10;;;;;;;8.57;4.40;;;25.50;50.60;;;;;;4995372;28;20192;-68
2021/06/10 06:25:40;;;;;;;6.77;3.87;;;25.50;50.60;;;;;;4978938;28;20201;-69
2021/06/10 06:28:11;;;;;;;14.83;5.20;;;25.50;50.90;;;;;;4974922;28;20312;-69
2021/06/10 06:30:42;;;;;;;18.37;5.90;;;25.50;50.40;;;;;;4993278;28;20212;-71
2021/06/10 06:33:12;;;;;;;16.97;5.43;;;25.30;46.90;;;;;;4993306;28;20362;-70
2021/06/10 06:35:45;;;;;;;17.23;5.77;;;25.10;47.10;;;;;;5005822;28;20222;-69
2021/06/10 06:38:17;;;;;;;14.40;5.50;;;24.90;47.50;;;;;;4987040;28;20279;-69
2021/06/10 06:40:52;;;;;;;9.93;4.93;;;24.70;47.70;;;;;;4996440;28;20192;-67
2021/06/10 06:43:24;;;;;;;9.93;5.00;;;24.60;47.90;;;;;;4993925;28;20574;-66
2021/06/10 06:45:55;;;;;;;17.40;5.37;;;24.40;48.40;;;;;;5004481;28;20672;-65
2021/06/10 06:48:28;;;;;;;14.73;5.30;;;24.30;48.80;;;;;;4996973;28;20200;-65
2021/06/10 06:51:00;;;;;;;13.50;5.33;;;24.20;49.10;;;;;;4994621;28;20245;-72
2021/06/10 06:53:46;;;;;;;12.93;4.90;;;24.10;47.90;;;;;;5014037;28;20200;-72
2021/06/10 06:56:23;;;;;;;12.00;5.20;;;23.90;46.20;;;;;;4987706;28;20729;-67
2021/06/10 06:58:52;;;;;;;9.00;4.70;;;23.90;45.60;;;;;;4943532;28;20233;-69
2021/06/10 07:01:23;;;;;;;11.30;4.87;;;23.80;44.70;;;;;;4973587;28;20205;-66
2021/06/10 07:03:56;;;;;;;11.20;4.50;;;23.80;43.90;;;;;;4990310;28;20193;-67
2021/06/10 07:06:24;;;;;;;9.37;4.67;;;23.80;43.50;;;;;;4975693;28;20283;-68
2021/06/10 07:08:56;;;;;;;7.87;4.13;;;23.80;43.30;;;;;;4988372;28;20725;-70
2021/06/10 07:11:36;;;;;;;7.47;3.90;;;23.70;43.10;;;;;;4984073;28;20224;-66
2021/06/10 07:14:06;;;;;;;7.77;4.17;;;23.70;42.80;;;;;;4986527;28;20201;-67
2021/06/10 07:16:35;;;;;;;7.40;3.97;;;23.60;43.20;;;;;;4986726;28;20620;-70
2021/06/10 07:19:03;;;;;;;6.10;3.73;;;23.70;49.10;;;;;;4985022;28;20231;-68
2021/06/10 07:21:49;;;;;;;6.97;3.87;;;23.70;53.30;;;;;;4986605;28;20208;-67
2021/06/10 07:24:54;;;;;;;5.17;4.10;;;23.90;56.50;;;;;;4967402;28;20212;-70
2021/06/10 07:27:23;;;;;;;4.50;3.43;;;23.90;54.40;;;;;;4983048;28;20669;-67
2021/06/10 07:29:53;;;;;;;7.40;3.93;;;23.90;49.20;;;;;;4985452;28;20212;-67
2021/06/10 07:32:26;;;;;;;4.00;3.40;;;23.80;46.60;;;;;;4988654;28;20765;-68
2021/06/10 07:35:04;;;;;;;6.87;3.53;;;23.80;45.30;;;;;;4959179;28;20217;-68
2021/06/10 07:37:34;;;;;;;5.40;3.37;;;23.70;44.40;;;;;;4976388;28;20327;-69
2021/06/10 07:40:06;;;;;;;4.87;3.13;;;23.70;48.30;;;;;;4985520;28;20236;-68
2021/06/10 07:42:36;;;;;;;9.27;3.63;;;23.80;53.10;;;;;;4986366;28;20196;-67
2021/06/10 07:45:07;;;;;;;4.93;3.30;;;23.80;56.50;;;;;;4991339;28;20873;-68
2021/06/10 07:47:37;;;;;;;6.07;3.10;;;23.90;57.20;;;;;;4974394;28;20207;-69
2021/06/10 07:50:08;;;;;;;5.43;3.40;;;23.90;50.80;;;;;;4958748;28;20621;-67
2021/06/10 07:52:40;;;;;;;4.40;3.27;;;23.80;47.30;;;;;;4985408;28;20204;-65
2021/06/10 07:55:21;;;;;;;5.53;3.30;;;23.70;45.40;;;;;;4971398;28;20715;-67
2021/06/10 07:58:01;;;;;;;6.73;3.00;;;23.70;44.30;;;;;;4987525;28;20217;-69
2021/06/10 08:00:31;;;;;;;7.80;3.47;;;23.60;43.60;;;;;;4982603;28;20213;-68
2021/06/10 08:03:00;;;;;;;6.43;3.07;;;23.50;43.00;;;;;;4968266;28;20261;-67
2021/06/10 08:05:30;;;;;;;5.93;3.37;;;23.40;42.80;;;;;;4972952;28;20257;-66
2021/06/10 08:08:02;;;;;;;5.90;2.90;;;23.30;42.50;;;;;;4982757;28;20598;-67
2021/06/10 08:10:29;;;;;;;3.30;2.90;;;23.30;44.90;;;;;;4986922;28;20227;-70
2021/06/10 08:12:58;;;;;;;4.83;3.17;;;23.30;50.40;;;;;;4983954;28;20216;-69
2021/06/10 08:15:29;;;;;;;4.40;3.10;;;23.40;54.30;;;;;;4980068;28;20228;-69
2021/06/10 08:18:01;;;;;;;3.53;3.17;;;23.50;57.10;;;;;;4983743;28;20220;-69
2021/06/10 08:20:54;;;;;;;4.37;3.17;;;23.60;58.00;;;;;;4966986;28;20665;-70
2021/06/10 08:23:34;;;;;;;4.03;3.40;;;23.60;51.10;;;;;;4980813;28;20282;-70
2021/06/10 08:26:08;;;;;;;4.87;3.60;;;23.50;47.00;;;;;;4983999;28;20223;-66
2021/06/10 08:29:30;;;;;;;4.67;3.47;;;23.40;45.20;;;;;;4993241;28;20210;-65
2021/06/10 08:32:02;;;;;;;3.60;3.30;;;23.40;52.10;;;;;;4981491;28;20259;-69
2021/06/10 08:34:31;;;;;;;6.63;4.27;;;23.40;55.80;;;;;;4980282;28;20215;-67
2021/06/10 08:37:10;;;;;;;4.83;4.00;;;23.50;54.10;;;;;;4977733;28;20215;-67
2021/06/10 08:39:43;;;;;;;3.50;3.10;;;23.50;48.90;;;;;;4987511;28;20232;-69
2021/06/10 08:42:15;;;;;;;4.13;3.33;;;23.40;46.60;;;;;;4995237;28;20207;-69
2021/06/10 08:44:47;;;;;;;4.10;2.97;;;23.40;45.10;;;;;;5002640;28;20200;-68
2021/06/10 08:47:21;;;;;;;3.40;3.00;;;23.30;48.70;;;;;;4986623;28;20202;-68
2021/06/10 08:49:51;;;;;;;3.93;3.23;;;23.40;53.70;;;;;;4980096;28;20218;-70
2021/06/10 08:52:21;;;;;;;4.87;3.67;;;23.50;57.10;;;;;;4985735;28;20229;-67
2021/06/10 08:54:50;;;;;;;5.53;3.57;;;23.60;57.50;;;;;;4986925;28;20200;-70
2021/06/10 08:57:20;;;;;;;5.40;3.10;;;23.60;51.30;;;;;;4987488;28;20204;-64
2021/06/10 08:59:52;;;;;;;6.93;2.87;;;23.50;47.80;;;;;;4988294;28;20200;-67
2021/06/10 09:02:23;;;;;;;7.47;3.37;;;23.50;46.00;;;;;;4990733;28;20576;-67
2021/06/10 09:04:52;;;;;;;6.67;3.40;;;23.40;46.80;;;;;;4983827;28;20247;-68
2021/06/10 09:07:54;;;;;;;6.30;3.23;;;23.50;52.60;;;;;;4984439;28;20585;-67
2021/06/10 09:10:29;;;;;;;3.30;3.00;;;23.50;56.90;;;;;;4987799;28;20650;-67
2021/06/10 09:13:01;;;;;;;6.80;3.33;;;23.60;56.80;;;;;;4969130;28;20201;-67
2021/06/10 09:15:40;;;;;;;4.63;3.23;;;23.60;50.70;;;;;;4970809;28;20283;-70
2021/06/10 09:18:09;;;;;;;9.60;3.13;;;23.50;47.40;;;;;;4970147;28;20224;-67
2021/06/10 09:20:44;;;;;;;4.87;3.00;;;23.50;45.60;;;;;;4987670;28;20282;-66
2021/06/10 09:23:24;;;;;;;5.33;2.90;;;23.40;48.40;;;;;;4987059;28;20250;-66
2021/06/10 09:26:08;;;;;;;7.63;3.30;;;23.50;54.00;;;;;;4984806;28;20229;-66
2021/06/10 09:28:39;;;;;;;3.57;2.73;;;23.50;54.60;;;;;;4988539;28;20281;-66
2021/06/10 09:31:17;;;;;;;3.07;2.50;;;23.60;51.50;;;;;;4970668;28;20215;-68
2021/06/10 09:33:48;;;;;;;6.00;2.60;;;23.60;50.40;;;;;;4983204;28;20216;-66
2021/06/10 09:36:23;;;;;;;3.40;2.17;;;23.50;50.00;;;;;;4989786;28;20220;-70
2021/06/10 09:39:13;;;;;;;3.50;2.50;;;23.60;49.40;;;;;;4989529;28;20223;-67
2021/06/10 09:42:00;;;;;;;4.83;2.50;;;23.50;48.80;;;;;;4972280;28;20208;-69
2021/06/10 09:44:48;;;;;;;7.83;2.53;;;23.60;54.50;;;;;;4984115;28;20215;-68
2021/06/10 09:47:40;;;;;;;5.43;2.63;;;23.60;56.70;;;;;;4989360;28;20291;-73
2021/06/10 09:50:52;;;;;;;5.77;2.47;;;23.70;51.50;;;;;;4986657;28;20220;-70
2021/06/10 09:53:34;;;;;;;4.53;2.30;;;23.60;49.90;;;;;;4988996;28;20195;-69
2021/06/10 09:56:13;;;;;;;2.40;2.20;;;23.60;49.00;;;;;;4990020;28;20199;-69
2021/06/10 09:58:45;;;;;;;3.03;2.70;;;23.60;48.80;;;;;;4990113;28;20267;-70
2021/06/10 10:01:17;;;;;;;2.90;2.70;;;23.70;53.90;;;;;;4986249;28;20200;-70
2021/06/10 10:04:02;;;;;;;3.37;2.60;;;23.70;57.30;;;;;;4975494;28;20755;-69
2021/06/10 10:06:35;;;;;;;3.23;2.60;;;23.80;51.90;;;;;;4989412;28;20670;-71
2021/06/10 10:09:08;;;;;;;3.57;2.67;;;23.80;50.30;;;;;;4973494;28;20204;-70
2021/06/10 10:11:36;;;;;;;2.93;2.70;;;23.70;49.40;;;;;;4990120;28;20855;-69
2021/06/10 10:14:18;;;;;;;3.90;2.70;;;23.70;49.20;;;;;;4996781;28;20295;-69
2021/06/10 10:16:51;;;;;;;3.97;2.33;;;23.70;48.70;;;;;;4990714;28;20240;-68
2021/06/10 10:19:22;;;;;;;2.70;2.50;;;23.70;49.90;;;;;;4991528;28;20240;-68
2021/06/10 10:21:54;;;;;;;3.17;2.67;;;23.70;54.80;;;;;;4990707;28;20223;-68
2021/06/10 10:24:25;;;;;;;3.43;2.30;;;23.80;57.40;;;;;;4975298;28;20625;-68
2021/06/10 10:26:55;;;;;;;2.53;2.33;;;23.80;52.20;;;;;;4989363;28;20279;-70
2021/06/10 10:29:25;;;;;;;2.43;2.20;;;23.70;50.30;;;;;;4975884;28;20669;-69
2021/06/10 10:31:57;;;;;;;2.73;2.47;;;23.70;49.40;;;;;;4990652;28;20602;-67
2021/06/10 10:34:29;;;;;;;2.90;2.37;;;23.70;49.00;;;;;;4998036;28;20529;-67
2021/06/10 10:37:22;;;;;;;2.33;2.13;;;23.60;48.80;;;;;;4976286;28;20200;-68
2021/06/10 10:40:02;;;;;;;2.30;2.10;;;23.60;49.70;;;;;;4985966;28;20576;-69
2021/06/10 10:42:36;;;;;;;2.40;2.20;;;23.70;55.20;;;;;;4990637;28;20222;-67
2021/06/10 10:45:23;;;;;;;2.30;2.10;;;23.70;55.50;;;;;;4992401;28;20594;-68
2021/06/10 10:48:06;;;;;;;3.13;2.37;;;23.70;51.10;;;;;;4995468;28;20234;-69
2021/06/10 10:50:49;;;;;;;2.33;2.10;;;23.70;49.80;;;;;;4970619;28;20721;-68
2021/06/10 10:53:22;;;;;;;3.47;2.10;;;23.70;49.10;;;;;;4986157;28;20229;-68
2021/06/10 10:56:10;;;;;;;2.20;2.00;;;23.60;48.80;;;;;;4989323;28;20266;-70
2021/06/10 10:58:40;;;;;;;3.10;2.10;;;23.60;48.60;;;;;;4995833;28;20314;-71
2021/06/10 11:01:28;;;;;;;2.70;2.17;;;23.60;53.70;;;;;;4990529;28;20192;-68
2021/06/10 11:04:04;;;;;;;2.17;2.07;;;23.70;56.80;;;;;;4978852;28;20226;-67
2021/06/10 11:06:35;;;;;;;2.37;2.17;;;23.70;52.50;;;;;;4974654;28;20200;-69
2021/06/10 11:09:14;;;;;;;2.37;1.90;;;23.70;50.30;;;;;;4975405;28;20221;-67
2021/06/10 11:12:10;;;;;;;4.77;2.20;;;23.70;49.00;;;;;;4986082;28;20227;-67
2021/06/10 11:14:57;;;;;;;3.37;2.23;;;23.70;51.00;;;;;;4988055;28;20282;-67
2021/06/10 11:17:29;;;;;;;3.47;2.30;;;23.70;56.60;;;;;;4991929;28;20235;-68
2021/06/10 11:20:16;;;;;;;2.60;2.20;;;23.80;56.30;;;;;;4972069;28;20300;-66
2021/06/10 11:22:50;;;;;;;4.10;2.10;;;23.80;52.10;;;;;;4982493;28;20222;-66
2021/06/10 11:25:52;;;;;;;2.60;2.40;;;23.80;50.00;;;;;;4972452;28;20341;-66
2021/06/10 11:28:30;;;;;;;3.47;2.10;;;23.80;48.70;;;;;;4988295;28;20201;-70
2021/06/10 11:31:20;;;;;;;4.33;2.17;;;23.80;47.90;;;;;;4980642;28;20195;-69
2021/06/10 11:33:51;;;;;;;2.50;2.23;;;23.80;54.00;;;;;;4984252;28;20276;-69
2021/06/10 11:36:26;;;;;;;3.07;1.80;;;23.90;57.60;;;;;;4991430;28;20200;-71
2021/06/10 11:39:01;;;;;;;2.90;2.47;;;23.90;53.40;;;;;;4989484;28;20537;-68
2021/06/10 11:41:30;;;;;;;2.97;2.00;;;23.90;50.40;;;;;;4969981;28;21186;-69
2021/06/10 11:44:00;;;;;;;2.23;2.03;;;23.90;48.90;;;;;;4989235;28;20592;-67
2021/06/10 11:46:42;;;;;;;2.40;2.20;;;23.90;48.10;;;;;;4986954;28;20242;-69
2021/06/10 11:49:40;;;;;;;2.20;1.90;;;23.90;47.50;;;;;;4975847;28;20290;-69
2021/06/10 11:52:11;;;;;;;2.53;2.00;;;23.90;49.80;;;;;;4988829;28;20196;-68
2021/06/10 11:55:04;;;;;;;2.53;2.00;;;23.90;55.10;;;;;;4983009;28;20588;-69
2021/06/10 11:57:33;;;;;;;2.43;2.00;;;23.90;52.80;;;;;;4972121;28;20210;-69
2021/06/10 12:00:10;;;;;;;4.07;1.63;;;23.90;49.70;;;;;;4984625;28;20224;-69
2021/06/10 12:02:41;;;;;;;2.33;1.50;;;23.90;48.00;;;;;;4972409;28;20200;-71
2021/06/10 12:05:20;;;;;;;5.63;1.70;;;23.90;47.10;;;;;;4985592;28;20579;-72
2021/06/10 12:08:17;;;;;;;3.40;2.20;;;23.80;47.90;;;;;;4992445;28;20697;-70
2021/06/10 12:11:03;;;;;;;1.90;1.80;;;23.90;55.90;;;;;;4985609;28;20206;-71
2021/06/10 12:13:52;;;;;;;8.97;2.30;;;24.00;53.00;;;;;;4972491;28;20245;-70
2021/06/10 12:16:24;;;;;;;8.13;2.10;;;24.00;51.70;;;;;;4987877;28;20232;-67
2021/06/10 12:19:14;;;;;;;4.00;2.10;;;24.00;51.20;;;;;;4986514;28;20308;-69
2021/06/10 12:22:02;;;;;;;8.83;2.40;;;24.00;50.80;;;;;;4978442;28;20211;-68
2021/06/10 12:24:43;;;;;;;4.30;1.67;;;24.00;50.50;;;;;;4986551;28;20203;-70
2021/06/10 12:27:20;;;;;;;7.30;2.27;;;23.90;50.40;;;;;;4986255;28;20208;-69
2021/06/10 12:29:54;;;;;;;2.80;1.93;;;23.80;50.80;;;;;;4985538;28;20192;-67
2021/06/10 12:32:26;;;;;;;1.93;1.60;;;23.80;50.20;;;;;;4969446;28;20231;-69
2021/06/10 12:34:56;;;;;;;3.40;1.90;;;23.90;50.00;;;;;;4969420;28;20574;-70
2021/06/10 12:37:26;;;;;;;3.17;1.67;;;23.90;49.90;;;;;;4969369;28;20631;-72
2021/06/10 12:40:01;;;;;;;3.63;1.60;;;23.90;49.90;;;;;;4984262;28;20298;-72
2021/06/10 12:43:09;;;;;;;4.20;1.83;;;23.90;49.90;;;;;;4982485;28;20295;-69
2021/06/10 12:45:40;;;;;;;2.40;1.80;;;23.90;49.90;;;;;;4985864;28;20189;-70
2021/06/10 12:48:29;;;;;;;2.03;1.60;;;23.90;49.50;;;;;;4971147;28;20204;-70
2021/06/10 12:51:39;;;;;;;1.80;1.70;;;23.90;49.40;;;;;;4966432;28;20213;-70
2021/06/10 12:54:17;;;;;;;3.27;1.43;;;23.90;49.30;;;;;;4982384;28;20759;-67
2021/06/10 12:56:55;;;;;;;1.70;1.60;;;23.90;49.20;;;;;;4986108;28;20544;-73
2021/06/10 12:59:37;;;;;;;1.93;1.80;;;23.90;48.90;;;;;;4954770;28;20230;-69
2021/06/10 13:02:14;;;;;;;1.83;1.70;;;23.90;48.90;;;;;;4986736;28;20200;-70
2021/06/10 13:05:17;;;;;;;4.53;1.40;;;23.90;47.40;;;;;;4978027;28;20212;-68
2021/06/10 13:08:06;;;;;;;4.87;1.57;;;23.90;46.20;;;;;;4981048;28;20266;-68
2021/06/10 13:10:41;;;;;;;1.73;1.60;;;23.90;45.40;;;;;;4974908;28;20216;-67
2021/06/10 13:13:11;;;;;;;2.43;1.63;;;23.90;46.20;;;;;;4970844;28;20207;-69
2021/06/10 13:15:43;;;;;;;1.57;1.30;;;24.00;49.50;;;;;;4986644;28;20254;-69
2021/06/10 13:18:31;;;;;;;4.20;1.60;;;24.20;52.00;;;;;;4992439;28;20204;-67
2021/06/10 13:21:24;;;;;;;3.17;1.70;;;24.40;53.70;;;;;;4993248;28;20193;-70
2021/06/10 13:23:55;;;;;;;2.83;2.17;;;24.60;55.00;;;;;;4966229;28;20193;-69
2021/06/10 13:26:37;;;;;;;3.63;1.80;;;24.70;53.80;;;;;;4980551;28;20200;-70